Alexandria, KY

9:48 PM EDT on October 31, 2014 (GMT -0400)
Summer Hill | Change Station
CLOSE
Current Station
Personal Weather Station
Location: California, KY
Elevation: 833 ft
Nearby Weather Stations
Active Advisory: Freeze Warning, Freeze Watch

Elev 833 ft 38.93 °N, 84.29 °W | Updated 8 minutes ago

Overcast
Overcast
37.8 °F
Feels Like 33 °F
N
6.0
Wind Variable Wind from South
Gusts 6.9 mph

Today
High -- | Low -- °F
--% Chance of Precip.
Yesterday
High -- | Low -- °F
Precip. -- in
8:03 AM 6:38 PM
First Quarter, 61% visible
Pressure 30.00 in
Visibility 10.0 miles
Clouds Mostly Cloudy 1800 ft
Overcast 3100 ft
Windchill 33 °F
Dew Point 34 °F
Humidity 85%
Rainfall 0.15 in
Snow Depth Not available.
UV 0 out of 12
Pollen .10 out of 12
Air Quality Not available.
Flu Activity Not available.
METAR KLUK 010053Z VRB05KT 10SM -RA BKN018 OVC031 04/02 A2999 RMK AO2 RAB45 SLP157 P0000 T00440017

More Conditions Fewer Conditions

Pressure 30.00 in
Visibility 10.0 miles
Clouds Mostly Cloudy 1800 ft
Overcast 3100 ft
Windchill 33 °F
Dew Point 34 °F
Humidity 85%
Rainfall 0.15 in
Snow Depth Not available.
UV 0 out of 12
Pollen .10 out of 12
Air Quality Not available.
Flu Activity Not available.
METAR KLUK 010053Z VRB05KT 10SM -RA BKN018 OVC031 04/02 A2999 RMK AO2 RAB45 SLP157 P0000 T00440017

More Conditions Fewer Conditions

10-Day Weather Forecast

Almanac

Astronomy

Oct. 31, 2014 Rise Set
Actual Time
Civil Twilight
Nautical Twilight
Astronomical Twilight
Moon
Length of Visible Light
Length of Day
Tomorrow will be .
, % of the Moon is Illuminated

Today's Extremes

State Highs State Lows

Community

WunderPhotos

Upload Photos

1,766,810 photos uploaded!

WunderBlogs® & News

Nearby

Air Quality

  Air Quality AQ Index Pollutant
Not available.

Snow Depth

Station Depth Elevation

Earthquake Activity

City Distance Mag. Time & Date
Minimum magnitude displayed is 2.5.

Coastal Water Temperatures

Place Temperature

Nearby Weather Stations